Time;durP1;ratioP1;P1;durP2;ratioP2;P2;SDS_P1;SDS_P2;PMS_P1;PMS_P2;Temp;Humidity;BMP_temperature;BMP_pressure;BME280_temperature;BME280_humidity;BME280_pressure;Samples;Min_cycle;Max_cycle;Signal;HPM_P1;HPM_P2
2021/12/14 00:01:24;;;;;;;21.45;12.02;;;;;;;3.66;89.78;99507.00;2568108;28;20046;-71
2021/12/14 00:02:41;;;;;;;23.85;11.73;;;;;;;3.66;89.67;99508.72;2567836;28;20051;-71
2021/12/14 00:04:18;;;;;;;21.17;11.50;;;;;;;3.64;89.97;99507.84;2567849;28;20174;-71
2021/12/14 00:05:36;;;;;;;22.88;12.05;;;;;;;3.62;90.07;99505.22;2568051;28;20047;-71
2021/12/14 00:06:52;;;;;;;20.23;12.02;;;;;;;3.63;89.81;99506.94;2567937;28;20050;-71
2021/12/14 00:08:13;;;;;;;20.42;11.50;;;;;;;3.65;89.78;99509.56;2567980;28;20126;-71
2021/12/14 00:09:34;;;;;;;21.42;11.73;;;;;;;3.67;89.91;99505.28;2568201;28;20167;-71
2021/12/14 00:11:14;;;;;;;23.88;11.98;;;;;;;3.68;89.64;99507.88;2568029;28;20536;-71
2021/12/14 00:12:39;;;;;;;21.52;11.88;;;;;;;3.69;89.74;99513.94;2568017;28;20079;-71
2021/12/14 00:14:14;;;;;;;20.23;11.73;;;;;;;3.67;89.89;99518.25;2568005;28;20630;-71
2021/12/14 00:15:31;;;;;;;20.05;11.90;;;;;;;3.68;89.77;99512.22;2568078;28;20050;-71
2021/12/14 00:16:49;;;;;;;22.58;12.07;;;;;;;3.69;89.70;99519.13;2567751;28;20065;-71
2021/12/14 00:18:10;;;;;;;22.25;12.13;;;;;;;3.68;89.67;99510.47;2567694;28;20050;-71
2021/12/14 00:19:28;;;;;;;20.98;12.23;;;;;;;3.72;89.68;99510.56;2567945;28;20137;-71
2021/12/14 00:20:52;;;;;;;25.80;13.70;;;;;;;3.73;89.74;99512.28;2567889;28;20054;-71
2021/12/14 00:22:25;;;;;;;22.17;12.57;;;;;;;3.72;89.55;99514.00;2567846;28;20086;-71
2021/12/14 00:25:15;;;;;;;23.63;12.95;;;;;;;3.71;89.74;99508.81;2567865;28;20050;-71
2021/12/14 00:26:31;;;;;;;22.35;12.20;;;;;;;3.72;89.62;99515.72;2567948;28;20050;-71
2021/12/14 00:27:47;;;;;;;20.45;11.40;;;;;;;3.70;89.83;99512.22;2567796;28;20429;-71
2021/12/14 00:29:04;;;;;;;19.85;11.93;;;;;;;3.67;89.90;99513.91;2567956;28;20059;-72
2021/12/14 00:30:20;;;;;;;21.58;12.10;;;;;;;3.68;89.96;99510.47;2567704;28;20501;-72
2021/12/14 00:31:37;;;;;;;24.95;12.95;;;;;;;3.72;89.67;99518.31;2567678;28;20078;-72
2021/12/14 00:32:53;;;;;;;24.27;13.77;;;;;;;3.73;89.73;99515.75;2567762;28;20908;-72
2021/12/14 00:34:09;;;;;;;23.75;12.32;;;;;;;3.72;89.96;99513.16;2567907;28;20047;-72
2021/12/14 00:35:24;;;;;;;21.50;12.48;;;;;;;3.70;89.87;99512.22;2567788;28;20075;-72
2021/12/14 00:36:40;;;;;;;22.35;11.85;;;;;;;3.71;89.80;99516.59;2567843;28;20138;-72
2021/12/14 00:37:58;;;;;;;23.63;12.48;;;;;;;3.72;89.92;99519.19;2567810;28;20055;-72
2021/12/14 00:39:14;;;;;;;20.38;11.10;;;;;;;3.74;89.92;99512.31;2567736;28;20141;-72
2021/12/14 00:40:35;;;;;;;20.98;11.35;;;;;;;3.76;89.78;99508.00;2567619;28;20046;-72
2021/12/14 00:41:50;;;;;;;20.63;11.93;;;;;;;3.77;89.79;99507.19;2567543;28;20057;-72
2021/12/14 00:43:07;;;;;;;19.25;11.45;;;;;;;3.78;89.89;99506.34;2567674;28;20134;-72
2021/12/14 00:44:23;;;;;;;20.42;11.15;;;;;;;3.79;89.76;99508.09;2567655;28;20051;-72
2021/12/14 00:45:42;;;;;;;19.63;11.10;;;;;;;3.79;89.71;99508.09;2567475;28;21100;-72
2021/12/14 00:46:57;;;;;;;18.63;11.18;;;;;;;3.80;89.45;99498.59;2567608;28;20525;-72
2021/12/14 00:48:15;;;;;;;22.73;11.90;;;;;;;3.80;89.62;99503.75;2567724;28;20066;-72
2021/12/14 00:49:32;;;;;;;19.00;11.45;;;;;;;3.79;89.71;99499.44;2567503;28;20154;-72
2021/12/14 00:50:53;;;;;;;21.58;11.25;;;;;;;3.78;89.58;99502.88;2567400;28;20050;-72
2021/12/14 00:52:09;;;;;;;21.20;12.52;;;;;;;3.77;89.70;99504.59;2567782;28;20054;-72
2021/12/14 00:53:26;;;;;;;22.33;11.65;;;;;;;3.77;89.64;99504.59;2567700;28;20051;-72
2021/12/14 00:54:42;;;;;;;19.50;11.50;;;;;;;3.74;89.73;99499.34;2567484;28;20054;-72
2021/12/14 00:56:01;;;;;;;21.27;11.82;;;;;;;3.74;89.64;99501.09;2567638;28;20062;-72
2021/12/14 00:57:17;;;;;;;20.65;11.48;;;;;;;3.73;89.66;99504.53;2567611;28;20118;-72
2021/12/14 00:58:33;;;;;;;19.65;11.02;;;;;;;3.72;89.92;99500.19;2567405;28;20050;-72
2021/12/14 00:59:48;;;;;;;18.63;11.38;;;;;;;3.71;89.65;99503.63;2567199;28;20788;-72
2021/12/14 01:01:15;;;;;;;22.58;11.88;;;;;;;3.71;89.68;99503.63;2567588;28;20560;-72
2021/12/14 01:02:30;;;;;;;21.83;10.82;;;;;;;3.71;89.68;99504.50;2567411;28;20141;-72
2021/12/14 01:03:52;;;;;;;20.40;11.32;;;;;;;3.72;89.66;99511.41;2567612;28;20130;-71
2021/12/14 01:05:13;;;;;;;21.40;11.48;;;;;;;3.70;89.90;99504.44;2567598;28;20051;-72
2021/12/14 01:06:33;;;;;;;19.02;11.48;;;;;;;3.68;89.73;99500.13;2567422;28;20054;-72
2021/12/14 01:07:49;;;;;;;22.67;12.45;;;;;;;3.70;89.69;99502.75;2567816;28;20482;-72
2021/12/14 01:09:06;;;;;;;19.90;11.73;;;;;;;3.67;89.73;99503.56;2567470;28;20109;-72
2021/12/14 01:10:25;;;;;;;19.90;11.63;;;;;;;3.67;89.76;99500.97;2566624;28;20053;-72
2021/12/14 01:11:45;;;;;;;27.25;14.07;;;;;;;3.68;89.95;99502.72;2567404;28;20051;-72
2021/12/14 01:13:06;;;;;;;20.80;12.20;;;;;;;3.68;89.79;99497.53;2567504;28;20916;-71
2021/12/14 01:14:41;;;;;;;25.13;12.60;;;;;;;3.68;89.96;99494.94;2567618;28;20050;-71
2021/12/14 01:16:31;;;;;;;24.67;12.90;;;;;;;3.69;89.88;99501.00;2567496;28;20054;-71
2021/12/14 01:18:01;;;;;;;21.25;11.98;;;;;;;3.70;89.63;99494.09;2567347;28;20055;-71
2021/12/14 01:19:25;;;;;;;21.35;11.95;;;;;;;3.70;89.83;99497.56;2567413;28;20054;-72
2021/12/14 01:20:49;;;;;;;21.20;11.85;;;;;;;3.69;89.66;99490.66;2567406;28;20413;-72
2021/12/14 01:22:17;;;;;;;23.25;11.98;;;;;;;3.70;89.71;99494.09;2567297;28;20167;-71
2021/12/14 01:23:34;;;;;;;24.30;12.23;;;;;;;3.70;89.58;99492.38;2567463;28;20117;-71
2021/12/14 01:26:18;;;;;;;20.25;11.70;;;;;;;3.69;89.52;99488.06;2567354;28;20121;-72
2021/12/14 01:28:07;;;;;;;21.98;12.05;;;;;;;3.68;89.77;99496.66;2567309;28;20070;-72
2021/12/14 01:29:23;;;;;;;22.17;11.77;;;;;;;3.66;89.66;99493.19;2567190;28;20059;-72
2021/12/14 01:30:48;;;;;;;22.05;12.07;;;;;;;3.64;89.81;99490.56;2567112;28;20109;-71
2021/12/14 01:32:05;;;;;;;21.25;12.30;;;;;;;3.62;89.90;99491.38;2567151;28;20057;-72
2021/12/14 01:33:23;;;;;;;20.48;11.40;;;;;;;3.61;90.09;99492.22;2566989;28;20154;-72
2021/12/14 01:34:39;;;;;;;22.73;11.93;;;;;;;3.57;89.99;99491.31;2567447;28;20051;-71
2021/12/14 01:35:56;;;;;;;23.52;12.52;;;;;;;3.55;90.19;99492.97;2567400;28;20533;-72
2021/12/14 01:37:18;;;;;;;26.77;12.80;;;;;;;3.51;90.30;99497.25;2567347;28;20541;-71
2021/12/14 01:38:45;;;;;;;23.60;12.68;;;;;;;3.49;90.78;99490.28;2567354;28;20122;-72
2021/12/14 01:40:05;;;;;;;23.20;12.13;;;;;;;3.46;90.68;99496.28;2567036;28;20089;-71
2021/12/14 01:41:21;;;;;;;25.77;13.02;;;;;;;3.47;90.70;99498.03;2566960;28;20050;-71
2021/12/14 01:42:40;;;;;;;24.25;12.48;;;;;;;3.46;90.68;99493.69;2567465;28;20500;-71
2021/12/14 01:43:57;;;;;;;23.92;12.75;;;;;;;3.46;90.73;99496.28;2567319;28;20540;-70
2021/12/14 01:45:13;;;;;;;21.75;12.82;;;;;;;3.47;90.80;99492.00;2567153;28;20086;-71
2021/12/14 01:46:33;;;;;;;23.30;12.60;;;;;;;3.48;90.85;99494.59;2567238;28;20516;-71
2021/12/14 01:47:56;;;;;;;22.15;12.13;;;;;;;3.50;90.75;99495.50;2567333;28;20055;-71
2021/12/14 01:49:16;;;;;;;20.75;11.93;;;;;;;3.52;90.78;99499.00;2567146;28;20061;-71
2021/12/14 01:50:39;;;;;;;23.55;12.68;;;;;;;3.56;90.68;99493.88;2567505;28;20047;-71
2021/12/14 01:52:00;;;;;;;23.55;11.70;;;;;;;3.57;90.40;99488.72;2567370;28;20055;-72
2021/12/14 01:53:20;;;;;;;22.25;12.27;;;;;;;3.55;90.51;99487.81;2567351;28;20055;-75
2021/12/14 01:54:43;;;;;;;24.23;12.88;;;;;;;3.56;90.62;99492.13;2567324;28;20047;-71
2021/12/14 01:56:00;;;;;;;;;;;;;;;3.59;90.31;99488.72;2567891;28;20093;-71
2021/12/14 01:57:20;;;;;;;19.88;9.85;;;;;;;3.61;90.42;99487.03;2567320;28;20069;-71
2021/12/14 01:58:48;;;;;;;21.17;11.73;;;;;;;3.62;90.12;99493.97;2567454;28;20081;-71
2021/12/14 02:00:08;;;;;;;21.10;10.90;;;;;;;3.60;90.44;99486.19;2567241;28;20046;-71
2021/12/14 02:01:37;;;;;;;21.27;11.40;;;;;;;3.60;90.67;99490.47;2567325;28;20051;-71
2021/12/14 02:02:53;;;;;;;22.75;12.48;;;;;;;3.62;90.39;99484.50;2566854;28;20053;-72
2021/12/14 02:04:14;;;;;;;23.70;12.82;;;;;;;3.66;90.40;99498.38;2567123;28;20050;-71
2021/12/14 02:05:44;;;;;;;21.98;11.35;;;;;;;3.72;90.34;99490.69;2567313;28;20055;-71
2021/12/14 02:07:05;;;;;;;23.10;12.30;;;;;;;3.78;90.00;99489.91;2567219;28;20046;-72
2021/12/14 02:08:28;;;;;;;22.17;12.10;;;;;;;3.78;89.97;99490.81;2567033;28;20070;-71
2021/12/14 02:09:49;;;;;;;20.15;11.73;;;;;;;3.77;89.93;99489.06;2567099;28;20410;-71
2021/12/14 02:11:07;;;;;;;22.70;11.57;;;;;;;3.76;90.02;99487.28;2567210;28;20046;-72
2021/12/14 02:12:27;;;;;;;21.92;11.52;;;;;;;3.78;90.05;99490.81;2566908;28;20193;-71
2021/12/14 02:13:47;;;;;;;21.75;11.65;;;;;;;3.76;90.17;99492.47;2556709;29;20118;-71
2021/12/14 02:15:11;;;;;;;21.63;11.15;;;;;;;3.72;90.17;99482.06;2561282;28;20525;-71
2021/12/14 02:16:27;;;;;;;20.75;11.30;;;;;;;3.73;90.33;99495.03;2567194;28;20241;-72
2021/12/14 02:17:44;;;;;;;20.17;11.45;;;;;;;3.73;90.06;99487.25;2566918;28;20108;-71
2021/12/14 02:19:05;;;;;;;19.98;10.48;;;;;;;3.74;90.02;99489.00;2566945;28;20402;-71
2021/12/14 02:20:27;;;;;;;20.00;10.45;;;;;;;3.77;90.09;99486.47;2567110;28;20058;-71
2021/12/14 02:21:46;;;;;;;20.10;10.48;;;;;;;3.79;89.97;99491.66;2567651;28;20050;-71
2021/12/14 02:23:02;;;;;;;18.10;10.60;;;;;;;3.80;89.84;99490.81;2569028;28;20141;-71
2021/12/14 02:24:19;;;;;;;20.73;10.95;;;;;;;3.81;90.08;99487.38;2569033;28;20051;-72
2021/12/14 02:25:35;;;;;;;19.30;11.18;;;;;;;3.83;89.91;99497.78;2568588;28;20080;-72
2021/12/14 02:26:52;;;;;;;22.45;11.45;;;;;;;3.83;89.84;99487.41;2569155;28;20047;-71
2021/12/14 02:28:17;;;;;;;19.70;10.27;;;;;;;3.84;89.97;99491.75;2569197;28;20112;-71
2021/12/14 02:29:37;;;;;;;19.65;11.02;;;;;;;3.82;90.18;99486.53;2568846;28;20512;-71
2021/12/14 02:30:55;;;;;;;20.90;11.60;;;;;;;3.83;89.94;99487.41;2569032;28;20413;-71
2021/12/14 02:32:15;;;;;;;18.23;10.73;;;;;;;3.83;89.89;99487.41;2568830;28;20471;-71
2021/12/14 02:33:34;;;;;;;18.55;10.18;;;;;;;3.83;89.80;99485.66;2568822;28;20046;-71
2021/12/14 02:34:54;;;;;;;19.17;11.15;;;;;;;3.83;89.64;99480.50;2568928;28;20587;-71
2021/12/14 02:36:17;;;;;;;21.00;10.52;;;;;;;3.82;89.57;99476.16;2569142;28;20101;-70
2021/12/14 02:37:44;;;;;;;19.23;10.73;;;;;;;3.83;89.78;99483.09;2568923;28;20054;-72
2021/12/14 02:39:12;;;;;;;17.00;10.10;;;;;;;3.84;89.78;99483.97;2568704;28;20526;-72
2021/12/14 02:40:57;;;;;;;21.02;11.20;;;;;;;3.85;89.71;99480.53;2568808;28;20429;-71
2021/12/14 02:42:22;;;;;;;19.02;10.32;;;;;;;3.85;89.60;99477.94;2568537;28;20494;-71
2021/12/14 02:43:52;;;;;;;22.52;11.45;;;;;;;3.86;89.78;99482.28;2568822;28;20055;-72
2021/12/14 02:45:09;;;;;;;22.00;11.73;;;;;;;3.86;89.68;99483.16;2569042;28;20500;-72
2021/12/14 02:46:32;;;;;;;21.40;11.48;;;;;;;3.88;89.54;99480.56;2568944;28;20105;-72
2021/12/14 02:47:47;;;;;;;19.33;10.85;;;;;;;3.86;89.60;99480.56;2568809;28;20089;-72
2021/12/14 02:49:07;;;;;;;18.67;10.32;;;;;;;3.86;89.77;99482.28;2568849;28;20086;-72
2021/12/14 02:50:24;;;;;;;21.98;10.48;;;;;;;3.85;89.65;99475.34;2568484;28;20073;-72
2021/12/14 02:51:47;;;;;;;19.70;10.65;;;;;;;3.84;89.71;99477.06;2568725;28;20137;-73
2021/12/14 02:53:03;;;;;;;19.73;10.60;;;;;;;3.83;89.57;99475.31;2568691;28;20082;-72
2021/12/14 02:54:25;;;;;;;19.33;10.38;;;;;;;3.80;89.56;99472.69;2568553;28;20046;-72
2021/12/14 02:55:41;;;;;;;24.73;12.30;;;;;;;3.77;89.58;99478.72;2568705;28;20413;-72
2021/12/14 02:57:08;;;;;;;28.65;14.98;;;;;;;3.76;89.61;99466.56;2568721;28;20051;-72
2021/12/14 02:58:24;;;;;;;27.40;14.15;;;;;;;3.74;89.40;99468.28;2568843;28;20114;-72
2021/12/14 02:59:42;;;;;;;26.95;13.93;;;;;;;3.74;89.67;99468.28;2568490;28;20054;-72
2021/12/14 03:00:58;;;;;;;27.23;14.02;;;;;;;3.76;89.93;99468.31;2568458;28;20086;-72
2021/12/14 03:02:21;;;;;;;27.05;13.90;;;;;;;3.76;89.40;99461.38;2568722;28;20135;-72
2021/12/14 03:03:37;;;;;;;28.35;13.88;;;;;;;3.77;89.47;99462.28;2568520;28;20047;-72
2021/12/14 03:04:57;;;;;;;27.00;13.18;;;;;;;3.76;89.44;99455.34;2568443;28;20500;-72
2021/12/14 03:06:19;;;;;;;26.80;13.40;;;;;;;3.73;89.52;99456.16;2568361;28;20178;-72
2021/12/14 03:07:44;;;;;;;26.05;13.45;;;;;;;3.71;89.44;99457.88;2568752;28;20047;-72
2021/12/14 03:09:20;;;;;;;27.38;13.68;;;;;;;3.68;89.58;99458.69;2568665;28;20055;-72
2021/12/14 03:10:54;;;;;;;21.52;11.07;;;;;;;3.64;89.67;99462.06;2568382;28;20518;-72
2021/12/14 03:12:14;;;;;;;21.13;11.48;;;;;;;3.61;89.76;99472.38;2568470;28;20051;-72
2021/12/14 03:13:34;;;;;;;20.05;10.43;;;;;;;3.59;90.06;99465.44;2568553;28;20043;-72
2021/12/14 03:14:54;;;;;;;21.65;11.40;;;;;;;3.56;89.99;99471.41;2568449;28;20106;-72
2021/12/14 03:16:17;;;;;;;20.13;11.32;;;;;;;3.55;90.00;99474.00;2568366;28;20132;-72
2021/12/14 03:17:32;;;;;;;;;;;;;;;3.58;89.99;99479.22;2569320;28;20047;-72
2021/12/14 03:18:49;;;;;;;20.15;9.95;;;;;;;3.64;90.03;99477.59;2568444;28;19926;-73
2021/12/14 03:20:31;;;;;;;22.77;11.98;;;;;;;3.65;89.80;99479.34;2568339;28;20057;-72
2021/12/14 03:21:49;;;;;;;25.40;11.45;;;;;;;3.66;89.67;99478.50;2568649;28;20050;-72
2021/12/14 03:23:09;;;;;;;23.38;12.00;;;;;;;3.68;90.05;99483.72;2568594;28;20047;-72
2021/12/14 03:24:24;;;;;;;23.25;12.80;;;;;;;3.67;90.00;99472.47;2568727;28;20051;-72
2021/12/14 03:25:43;;;;;;;21.33;11.68;;;;;;;3.68;89.99;99478.53;2568514;28;20058;-72
2021/12/14 03:27:02;;;;;;;18.55;10.98;;;;;;;3.66;90.01;99472.47;2568575;28;20058;-72
2021/12/14 03:28:21;;;;;;;21.67;11.65;;;;;;;3.66;90.03;99469.88;2568293;28;20504;-72
2021/12/14 03:29:36;;;;;;;23.08;12.40;;;;;;;3.64;90.29;99472.44;2568323;28;20057;-72
2021/12/14 03:31:12;;;;;;;20.70;11.85;;;;;;;3.70;90.12;99466.47;2568361;28;20054;-72
2021/12/14 03:32:27;;;;;;;22.15;11.00;;;;;;;3.68;90.32;99468.19;2568362;28;20497;-72
2021/12/14 03:33:52;;;;;;;20.80;11.75;;;;;;;3.66;90.17;99460.38;2567480;28;20050;-72
2021/12/14 03:35:07;;;;;;;24.17;13.02;;;;;;;3.64;90.36;99462.06;2568162;28;20066;-72
2021/12/14 03:36:31;;;;;;;20.98;11.65;;;;;;;3.63;90.47;99460.34;2568441;28;20667;-72
2021/12/14 03:37:48;;;;;;;20.90;11.88;;;;;;;3.63;90.53;99467.22;2568389;28;20051;-72
2021/12/14 03:39:18;;;;;;;22.10;12.75;;;;;;;3.63;90.56;99462.91;2568326;28;20246;-72
2021/12/14 03:40:33;;;;;;;21.40;11.20;;;;;;;3.64;90.62;99467.25;2568236;28;20042;-72
2021/12/14 03:41:51;;;;;;;20.40;11.60;;;;;;;3.64;90.66;99463.81;2567857;28;20067;-73
2021/12/14 03:43:07;;;;;;;22.50;11.52;;;;;;;3.66;90.87;99464.69;2568345;28;20051;-72
2021/12/14 03:44:30;;;;;;;21.38;11.55;;;;;;;3.67;90.86;99456.09;2568276;28;20358;-71
2021/12/14 03:45:46;;;;;;;20.38;11.45;;;;;;;3.69;90.83;99456.97;2568209;28;20138;-72
2021/12/14 03:47:22;;;;;;;22.60;11.27;;;;;;;3.72;90.76;99451.84;2568053;28;20429;-71
2021/12/14 03:48:39;;;;;;;20.45;11.13;;;;;;;3.73;90.67;99457.91;2568214;28;20055;-71
2021/12/14 03:49:59;;;;;;;20.20;10.85;;;;;;;3.77;90.50;99455.38;2567189;28;20051;-71
2021/12/14 03:51:19;;;;;;;20.48;11.13;;;;;;;3.78;90.66;99454.53;2568148;28;20125;-71
2021/12/14 03:52:37;;;;;;;21.85;11.32;;;;;;;3.79;90.46;99456.28;2568114;28;20047;-71
2021/12/14 03:53:55;;;;;;;20.17;11.38;;;;;;;3.81;90.44;99464.06;2568182;28;20054;-71
2021/12/14 03:55:17;;;;;;;24.67;12.48;;;;;;;3.83;90.18;99459.78;2568302;28;20057;-71
2021/12/14 03:56:33;;;;;;;23.83;12.13;;;;;;;3.83;90.27;99462.34;2567912;28;20106;-71
2021/12/14 03:57:50;;;;;;;21.30;11.63;;;;;;;3.84;90.23;99461.50;2568018;28;20051;-71
2021/12/14 03:59:06;;;;;;;21.65;12.20;;;;;;;3.85;90.16;99467.56;2566814;28;20146;-71
2021/12/14 04:00:33;;;;;;;21.38;12.65;;;;;;;3.85;90.01;99467.56;2567029;28;20047;-71
2021/12/14 04:01:50;;;;;;;21.38;12.35;;;;;;;3.87;89.69;99466.75;2567943;28;20124;-71
2021/12/14 04:03:10;;;;;;;24.20;12.23;;;;;;;3.87;89.75;99461.59;2567958;28;20062;-71
2021/12/14 04:04:33;;;;;;;23.63;12.68;;;;;;;3.87;89.74;99464.16;2568157;28;20410;-71
2021/12/14 04:05:48;;;;;;;;;;;;;;;3.87;90.00;99463.28;2568921;28;20093;-71
2021/12/14 04:07:09;;;;;;;33.70;14.43;;;;;;;3.85;89.99;99465.00;2567925;28;20267;-72
2021/12/14 04:08:27;;;;;;;32.63;15.93;;;;;;;3.86;89.74;99466.72;2567820;28;20105;-71
2021/12/14 04:09:43;;;;;;;29.13;14.40;;;;;;;3.87;89.47;99460.69;2567742;28;20410;-71
2021/12/14 04:11:02;;;;;;;29.48;15.18;;;;;;;3.85;89.82;99472.75;2567970;28;20157;-71
2021/12/14 04:12:20;;;;;;;34.60;16.88;;;;;;;3.88;89.75;99470.22;2567974;28;20532;-71
2021/12/14 04:13:40;;;;;;;31.30;15.57;;;;;;;3.92;89.46;99478.06;2568005;28;20089;-71
2021/12/14 04:14:57;;;;;;;32.83;15.90;;;;;;;3.90;89.35;99469.41;2568033;28;20132;-71
2021/12/14 04:16:19;;;;;;;31.63;15.68;;;;;;;3.88;89.17;99472.81;2567882;28;20501;-71
2021/12/14 04:17:35;;;;;;;28.52;14.15;;;;;;;3.86;89.33;99465.03;2567777;28;20134;-71
2021/12/14 04:18:50;;;;;;;27.75;14.77;;;;;;;3.84;89.39;99465.84;2567558;28;20062;-72
2021/12/14 04:20:13;;;;;;;27.77;13.77;;;;;;;3.79;89.64;99474.41;2565589;28;20042;-71
2021/12/14 04:21:29;;;;;;;36.47;15.70;;;;;;;3.78;89.46;99467.50;2567774;28;20054;-71
2021/12/14 04:22:48;;;;;;;29.60;14.15;;;;;;;3.80;89.66;99468.38;2567806;28;20387;-71
2021/12/14 04:24:07;;;;;;;28.42;13.50;;;;;;;3.79;89.50;99461.47;2567806;28;20086;-71
2021/12/14 04:25:27;;;;;;;31.63;14.00;;;;;;;3.77;89.74;99457.97;2567583;28;20116;-71
2021/12/14 04:26:45;;;;;;;28.48;13.95;;;;;;;3.77;89.83;99468.34;2568154;28;20382;-71
2021/12/14 04:28:06;;;;;;;30.17;14.15;;;;;;;3.78;89.65;99466.59;2567905;28;20046;-71
2021/12/14 04:29:22;;;;;;;27.10;13.65;;;;;;;3.78;89.82;99467.50;2567629;28;20062;-71
2021/12/14 04:30:39;;;;;;;28.20;13.52;;;;;;;3.77;89.68;99465.75;2567889;28;20540;-71
2021/12/14 04:31:55;;;;;;;27.92;14.48;;;;;;;3.78;89.72;99464.91;2567678;28;20062;-70
2021/12/14 04:33:15;;;;;;;32.72;14.45;;;;;;;3.77;89.88;99460.56;2567214;28;20085;-70
2021/12/14 04:34:33;;;;;;;28.90;14.85;;;;;;;3.76;89.78;99461.38;2567884;28;20054;-71
2021/12/14 04:35:50;;;;;;;33.70;15.75;;;;;;;3.75;89.77;99461.38;2567744;28;20051;-72
2021/12/14 04:37:06;;;;;;;31.15;15.85;;;;;;;3.73;89.82;99445.81;2567601;28;20143;-71
2021/12/14 04:38:31;;;;;;;32.30;14.77;;;;;;;3.70;89.81;99450.94;2567780;28;20070;-71
2021/12/14 04:51:53;;;;;;;34.00;16.13;;;;;;;3.71;90.00;99450.09;2567568;28;20465;-72
2021/12/14 04:53:02;;;;;;;28.77;14.13;;;;;;;3.66;89.88;99443.97;2567449;28;20058;-71
2021/12/14 04:54:18;;;;;;;30.33;13.63;;;;;;;3.64;89.86;99443.94;2567189;28;20489;-71
2021/12/14 04:55:34;;;;;;;26.83;13.85;;;;;;;3.63;89.94;99446.50;2567408;28;20075;-71
2021/12/14 04:56:49;;;;;;;28.20;13.60;;;;;;;3.67;89.89;99443.13;2567025;28;20552;-71
2021/12/14 04:58:05;;;;;;;26.83;14.05;;;;;;;3.67;89.68;99446.56;2567257;28;20054;-71
2021/12/14 04:59:32;;;;;;;29.00;13.93;;;;;;;3.66;89.87;99439.66;2567240;28;20110;-71
2021/12/14 05:00:49;;;;;;;30.63;13.93;;;;;;;3.64;89.87;99443.09;2567162;28;20053;-71
2021/12/14 05:02:12;;;;;;;29.35;14.00;;;;;;;3.59;89.96;99434.34;2566856;28;20108;-71
2021/12/14 05:03:51;;;;;;;25.67;13.55;;;;;;;3.56;90.07;99439.50;2567134;28;20101;-71
2021/12/14 05:05:09;;;;;;;29.77;14.02;;;;;;;3.57;90.16;99443.81;2566444;28;20073;-71
2021/12/14 05:06:33;;;;;;;25.25;12.50;;;;;;;3.55;90.12;99440.34;2566717;28;20485;-71
2021/12/14 05:09:37;;;;;;;23.88;12.20;;;;;;;3.54;90.12;99447.22;2529751;28;20056;-71
2021/12/14 05:11:03;;;;;;;23.55;11.77;;;;;;;3.56;90.42;99436.91;2567049;28;20137;-71
2021/12/14 05:12:24;;;;;;;24.08;12.23;;;;;;;3.58;90.05;99440.38;2566757;28;20425;-71
2021/12/14 05:13:43;;;;;;;21.30;11.85;;;;;;;3.54;90.23;99431.69;2567378;28;20050;-72
2021/12/14 05:15:04;;;;;;;25.13;12.32;;;;;;;3.55;90.08;99443.78;2567336;28;20075;-72
2021/12/14 05:16:26;;;;;;;21.95;12.35;;;;;;;3.53;90.21;99441.19;2567273;28;20046;-71
2021/12/14 05:17:46;;;;;;;21.95;12.15;;;;;;;3.52;90.22;99430.78;2566806;28;20074;-71
2021/12/14 05:19:06;;;;;;;22.13;12.38;;;;;;;3.50;90.49;99429.91;2567002;28;20058;-70
2021/12/14 05:20:22;;;;;;;22.70;12.77;;;;;;;3.50;90.24;99428.19;2566339;28;20090;-71
2021/12/14 05:21:37;;;;;;;23.35;12.45;;;;;;;3.51;90.24;99429.06;2566557;28;20051;-70
2021/12/14 05:22:53;;;;;;;23.30;12.23;;;;;;;3.53;90.46;99423.06;2567281;28;20038;-70
2021/12/14 05:24:14;;;;;;;22.67;12.35;;;;;;;3.56;90.33;99423.94;2566859;28;20046;-70
2021/12/14 05:25:30;;;;;;;25.25;11.65;;;;;;;3.55;90.33;99420.47;2567059;28;20098;-72
2021/12/14 05:26:49;;;;;;;20.10;11.50;;;;;;;3.57;90.23;99420.50;2567448;28;20109;-72
2021/12/14 05:28:08;;;;;;;21.73;11.90;;;;;;;3.55;90.29;99414.44;2567493;28;20047;-72
2021/12/14 05:29:26;;;;;;;21.55;11.60;;;;;;;3.57;90.29;99417.94;2567250;28;20097;-72
2021/12/14 05:30:46;;;;;;;24.27;12.00;;;;;;;3.57;90.24;99420.50;2567167;28;20573;-73
2021/12/14 05:32:04;;;;;;;21.08;11.57;;;;;;;3.56;90.24;99422.22;2567079;28;20043;-75
2021/12/14 05:33:28;;;;;;;22.90;11.60;;;;;;;3.56;90.31;99426.53;2566767;28;20138;-72
2021/12/14 05:34:49;;;;;;;21.15;10.98;;;;;;;3.57;90.46;99428.28;2567034;28;20046;-72
2021/12/14 05:36:13;;;;;;;20.55;11.85;;;;;;;3.61;90.43;99430.94;2566597;28;20074;-70
2021/12/14 05:37:33;;;;;;;27.35;13.27;;;;;;;3.64;90.38;99433.59;2567180;28;20509;-70
2021/12/14 05:39:05;;;;;;;28.30;14.05;;;;;;;3.63;90.33;99430.97;2566988;28;20046;-70
2021/12/14 05:40:43;;;;;;;40.72;17.85;;;;;;;3.61;90.16;99430.06;2567069;28;20054;-71
2021/12/14 05:43:26;;;;;;;39.65;19.33;;;;;;;3.51;90.43;99421.28;2566674;28;20055;-72
2021/12/14 05:44:45;;;;;;;37.60;18.55;;;;;;;3.48;90.45;99424.69;2567198;28;20509;-70
2021/12/14 05:46:05;;;;;;;37.30;18.42;;;;;;;3.46;90.53;99421.19;2566555;28;20055;-70
2021/12/14 05:47:21;;;;;;;39.97;20.17;;;;;;;3.49;90.68;99420.38;2567380;28;20055;-70
2021/12/14 05:48:37;;;;;;;40.70;20.55;;;;;;;3.48;90.58;99424.69;2567427;28;20047;-71
2021/12/14 05:49:53;;;;;;;41.33;19.63;;;;;;;3.49;90.37;99423.88;2567426;28;20054;-70
2021/12/14 05:51:10;;;;;;;26.42;13.82;;;;;;;3.50;90.77;99428.19;2567202;28;20058;-70
2021/12/14 05:52:27;;;;;;;33.20;17.38;;;;;;;3.55;90.92;99429.97;2567457;28;20051;-72
2021/12/14 05:53:45;;;;;;;35.00;18.10;;;;;;;3.56;90.60;99421.38;2567020;28;20054;-71
2021/12/14 05:55:01;;;;;;;36.75;17.35;;;;;;;3.56;90.68;99427.41;2567546;28;20074;-71
2021/12/14 05:56:20;;;;;;;36.95;18.48;;;;;;;3.59;90.77;99427.47;2567339;28;20531;-71
2021/12/14 05:57:36;;;;;;;24.25;12.98;;;;;;;3.81;90.30;99425.19;2569511;28;20047;-71
2021/12/14 05:58:55;;;;;;;30.65;15.93;;;;;;;3.83;90.00;99427.81;2569157;28;20078;-71
2021/12/14 06:00:13;;;;;;;20.30;10.82;;;;;;;4.01;89.64;99428.09;2569142;28;20142;-71
2021/12/14 06:01:33;;;;;;;22.52;10.23;;;;;;;4.21;89.02;99423.19;2568411;28;20106;-71
2021/12/14 06:02:49;;;;;;;23.48;11.75;;;;;;;4.33;88.35;99422.50;2566853;28;20057;-71
2021/12/14 06:04:07;;;;;;;23.58;13.52;;;;;;;4.31;87.91;99418.13;2567089;28;20047;-71
2021/12/14 06:05:28;;;;;;;21.65;11.13;;;;;;;4.24;87.65;99417.19;2568508;28;20047;-71
2021/12/14 06:06:51;;;;;;;30.70;14.05;;;;;;;4.11;87.84;99413.53;2568645;28;20508;-71
2021/12/14 06:08:07;;;;;;;24.83;13.77;;;;;;;4.12;88.14;99412.72;2568603;28;20047;-72
2021/12/14 06:09:28;;;;;;;25.08;13.38;;;;;;;4.05;88.14;99411.75;2568668;28;20048;-72
2021/12/14 06:10:43;;;;;;;24.95;13.20;;;;;;;3.98;88.52;99412.50;2568093;28;20043;-71
2021/12/14 06:12:10;;;;;;;25.05;13.20;;;;;;;3.90;88.67;99412.41;2568944;28;20050;-70
2021/12/14 06:13:45;;;;;;;27.75;13.60;;;;;;;3.84;88.89;99408.84;2569084;28;20093;-73
2021/12/14 06:15:03;;;;;;;33.63;15.77;;;;;;;3.79;88.93;99414.84;2569027;28;20054;-72
2021/12/14 06:16:34;;;;;;;35.60;18.48;;;;;;;3.73;89.13;99404.38;2567010;28;20046;-71
2021/12/14 06:17:50;;;;;;;35.45;17.55;;;;;;;3.68;89.20;99411.22;2566410;28;20136;-71
2021/12/14 06:19:26;;;;;;;35.60;18.02;;;;;;;3.64;89.53;99412.88;2566383;28;20058;-71
2021/12/14 06:20:43;;;;;;;36.50;18.67;;;;;;;3.63;89.59;99418.91;2566190;28;20043;-71
2021/12/14 06:22:07;;;;;;;34.20;17.88;;;;;;;3.62;89.45;99414.56;2566822;28;20050;-71
2021/12/14 06:23:25;;;;;;;37.60;19.48;;;;;;;3.62;89.56;99405.91;2566727;28;20039;-71
2021/12/14 06:24:48;;;;;;;38.22;19.27;;;;;;;3.61;89.57;99409.34;2566799;28;20449;-70
2021/12/14 06:26:03;;;;;;;35.45;19.40;;;;;;;3.57;89.60;99402.38;2567046;28;20042;-71
2021/12/14 06:27:23;;;;;;;31.92;17.63;;;;;;;3.59;89.75;99400.69;2566552;28;20054;-71
2021/12/14 06:28:39;;;;;;;29.75;16.75;;;;;;;3.58;89.86;99398.94;2566478;28;20476;-71
2021/12/14 06:30:05;;;;;;;32.78;16.23;;;;;;;3.56;89.81;99395.47;2566490;28;20055;-71
2021/12/14 06:31:23;;;;;;;27.80;15.48;;;;;;;3.53;90.13;99397.16;2566145;28;20051;-71
2021/12/14 06:32:55;;;;;;;30.50;15.05;;;;;;;3.50;90.34;99391.94;2566296;28;20485;-71
2021/12/14 06:34:12;;;;;;;27.20;14.63;;;;;;;3.46;90.41;99394.47;2566317;28;20047;-71